Harbor Springs, Michigan
Current Conditions -  °F | °C
As of 9:15 AM on Thursday 18 Dec 2014 (Local Time) from KMGN Reporting Station
Clear Clear  
Wind Chill: -13°   Ceiling: Unl
Heat Index: -8°   Visibility: 10mi
Dew Point: -12°   Wind: 7mph
Humidity: 71%   Direction: 50°NE
Pressure: 30.22"   Gusts: NA
Location:  45.43°N, 84.99°W
Report Text: KMGN 181415Z AUTO 05006KT 10SM CLR M07/M12 A3022 RMK AO2 T10761120
Loading
Personal Weather Stations






























Interactive Weather Map New forecast layout! Learn more

10-Day Weather Forecast

Advertisements
Track Severe Weather on mobile